Time;durP1;ratioP1;P1;durP2;ratioP2;P2;SDS_P1;SDS_P2;PMS_P1;PMS_P2;Temp;Humidity;BMP_temperature;BMP_pressure;BME280_temperature;BME280_humidity;BME280_pressure;Samples;Min_cycle;Max_cycle;Signal;HPM_P1;HPM_P2
2021/11/09 00:00:53;;;;;;;25.55;10.15;;;5.60;99.90;;;;;;5117672;27;20082;-73
2021/11/09 00:03:20;;;;;;;24.35;10.10;;;5.60;99.90;;;;;;5114915;27;20141;-72
2021/11/09 00:05:52;;;;;;;24.23;10.93;;;5.60;99.90;;;;;;5114816;27;20606;-72
2021/11/09 00:08:22;;;;;;;22.98;10.10;;;5.70;99.90;;;;;;5117139;27;20058;-72
2021/11/09 00:10:49;;;;;;;30.55;11.63;;;5.60;99.90;;;;;;5116697;27;20051;-72
2021/11/09 00:13:17;;;;;;;31.08;11.32;;;5.60;99.90;;;;;;5116087;27;20051;-72
2021/11/09 00:15:45;;;;;;;26.17;10.65;;;5.60;99.90;;;;;;5116410;27;20485;-72
2021/11/09 00:18:13;;;;;;;23.77;10.77;;;5.60;99.90;;;;;;5118423;27;20050;-73
2021/11/09 00:20:42;;;;;;;23.98;10.65;;;5.70;99.90;;;;;;5116538;28;20507;-73
2021/11/09 00:23:10;;;;;;;26.10;10.30;;;5.70;99.90;;;;;;5115327;28;20952;-73
2021/11/09 00:25:39;;;;;;;25.67;11.70;;;5.70;99.90;;;;;;5114837;28;20139;-72
2021/11/09 00:28:07;;;;;;;21.92;11.30;;;5.70;99.90;;;;;;5115431;28;20130;-72
2021/11/09 00:30:35;;;;;;;24.83;11.18;;;5.70;99.90;;;;;;5115255;28;20115;-72
2021/11/09 00:33:04;;;;;;;28.63;10.70;;;5.60;99.90;;;;;;5116486;28;20495;-72
2021/11/09 00:35:32;;;;;;;30.70;11.88;;;5.70;99.90;;;;;;5114587;28;20138;-70
2021/11/09 00:38:03;;;;;;;22.67;10.98;;;5.70;99.90;;;;;;5114388;27;20108;-70
2021/11/09 00:40:32;;;;;;;26.67;11.45;;;5.70;99.90;;;;;;5111481;28;20055;-70
2021/11/09 00:42:59;;;;;;;22.67;10.90;;;5.60;99.90;;;;;;5113026;27;20573;-70
2021/11/09 00:45:27;;;;;;;27.88;10.68;;;5.60;99.90;;;;;;5113422;28;20082;-70
2021/11/09 00:47:54;;;;;;;20.55;10.52;;;5.70;99.90;;;;;;5114650;28;20503;-71
2021/11/09 00:50:24;;;;;;;20.98;10.30;;;5.80;99.90;;;;;;5114394;28;20086;-70
2021/11/09 00:52:51;;;;;;;18.90;9.77;;;5.80;99.90;;;;;;5115145;27;20202;-70
2021/11/09 00:55:19;;;;;;;21.95;10.25;;;5.80;99.90;;;;;;5113950;27;20082;-69
2021/11/09 00:57:47;;;;;;;22.98;10.25;;;5.80;99.90;;;;;;5111440;28;20043;-69
2021/11/09 01:00:19;;;;;;;18.08;9.68;;;5.80;99.90;;;;;;5112094;28;20126;-70
2021/11/09 01:02:48;;;;;;;20.70;9.82;;;5.70;99.90;;;;;;5111151;27;20108;-70
2021/11/09 01:05:20;;;;;;;27.17;10.25;;;5.70;99.90;;;;;;5111076;28;20048;-70
2021/11/09 01:07:49;;;;;;;25.65;11.02;;;5.70;99.90;;;;;;5113313;28;20101;-70
2021/11/09 01:10:17;;;;;;;28.10;9.93;;;5.60;99.90;;;;;;5110729;28;20066;-69
2021/11/09 01:12:45;;;;;;;22.40;10.15;;;5.60;99.90;;;;;;5110648;27;20070;-70
2021/11/09 01:15:13;;;;;;;23.90;10.05;;;5.60;99.90;;;;;;5110558;28;20098;-69
2021/11/09 01:17:42;;;;;;;25.55;11.33;;;5.60;99.90;;;;;;5110764;28;1164533;-71
2021/11/09 01:20:12;;;;;;;26.58;10.63;;;5.60;99.90;;;;;;5110638;27;20563;-69
2021/11/09 01:22:39;;;;;;;24.75;10.18;;;5.60;99.90;;;;;;5112784;27;20100;-70
2021/11/09 01:25:09;;;;;;;24.02;10.80;;;5.60;99.90;;;;;;5112037;27;20092;-69
2021/11/09 01:27:36;;;;;;;21.70;9.50;;;5.60;99.90;;;;;;5110831;27;20051;-70
2021/11/09 01:30:05;;;;;;;28.88;9.95;;;5.70;99.90;;;;;;5111983;27;20082;-70
2021/11/09 01:32:35;;;;;;;23.33;9.57;;;5.70;99.90;;;;;;5111589;27;20515;-71
2021/11/09 01:35:03;;;;;;;28.45;10.15;;;5.70;99.90;;;;;;5113006;27;20055;-69
2021/11/09 01:37:30;;;;;;;21.80;9.30;;;5.70;99.90;;;;;;5111369;27;20058;-69
2021/11/09 01:39:57;;;;;;;20.70;9.35;;;5.70;99.90;;;;;;5111553;27;20082;-69
2021/11/09 01:42:27;;;;;;;24.33;10.02;;;5.70;99.90;;;;;;5112410;27;20044;-69
2021/11/09 01:44:54;;;;;;;22.25;10.93;;;5.60;99.90;;;;;;5112209;27;20097;-69
2021/11/09 01:47:21;;;;;;;23.58;10.20;;;5.50;99.90;;;;;;5114273;27;20468;-69
2021/11/09 01:49:48;;;;;;;22.13;10.60;;;5.50;99.90;;;;;;5113880;27;20135;-70
2021/11/09 01:52:15;;;;;;;24.65;10.88;;;5.50;99.90;;;;;;5114768;27;20111;-69
2021/11/09 01:54:42;;;;;;;21.85;9.52;;;5.50;99.90;;;;;;5114450;27;20091;-71
2021/11/09 01:57:09;;;;;;;24.27;10.23;;;5.50;99.90;;;;;;5112581;27;20464;-69
2021/11/09 01:59:38;;;;;;;22.77;10.18;;;5.50;99.90;;;;;;5113659;27;20115;-69
2021/11/09 02:02:05;;;;;;;23.10;9.75;;;5.50;99.90;;;;;;5116342;27;20413;-69
2021/11/09 02:04:32;;;;;;;28.77;10.55;;;5.50;99.90;;;;;;5116813;27;20092;-69
2021/11/09 02:06:59;;;;;;;24.95;9.45;;;5.60;99.90;;;;;;5116437;27;20143;-69
2021/11/09 02:09:27;;;;;;;24.17;10.38;;;5.60;99.90;;;;;;5116081;27;20078;-69
2021/11/09 02:11:54;;;;;;;23.90;10.63;;;5.60;99.90;;;;;;5115664;27;20062;-69
2021/11/09 02:14:24;;;;;;;26.98;11.68;;;5.60;99.90;;;;;;5113466;27;20088;-69
2021/11/09 02:16:53;;;;;;;24.55;10.95;;;5.60;99.90;;;;;;5113739;27;20051;-69
2021/11/09 02:19:20;;;;;;;34.67;11.18;;;5.60;99.90;;;;;;5114318;27;20055;-69
2021/11/09 02:21:48;;;;;;;27.40;10.85;;;5.70;99.90;;;;;;5113297;27;20572;-69
2021/11/09 02:24:16;;;;;;;20.75;10.10;;;5.60;99.90;;;;;;5113768;27;20503;-69
2021/11/09 02:26:42;;;;;;;25.75;9.88;;;5.60;99.90;;;;;;5112915;27;20070;-70
2021/11/09 02:29:09;;;;;;;25.67;11.25;;;5.50;99.90;;;;;;5113984;27;20078;-71
2021/11/09 02:31:36;;;;;;;21.80;10.52;;;5.50;99.90;;;;;;5113116;27;20051;-69
2021/11/09 02:34:04;;;;;;;22.45;9.88;;;5.50;99.90;;;;;;5113622;27;20511;-70
2021/11/09 02:36:31;;;;;;;23.25;10.05;;;5.60;99.90;;;;;;5112312;27;20079;-70
2021/11/09 02:38:59;;;;;;;23.38;10.70;;;5.50;99.90;;;;;;5115114;27;20058;-72
2021/11/09 02:41:27;;;;;;;21.25;10.55;;;5.50;99.90;;;;;;5114955;27;20185;-71
2021/11/09 02:43:56;;;;;;;24.08;11.25;;;5.60;99.90;;;;;;5114939;27;20059;-71
2021/11/09 02:46:41;;;;;;;21.15;10.90;;;5.60;99.90;;;;;;5115484;27;20059;-73
2021/11/09 02:49:15;;;;;;;25.13;10.85;;;5.50;99.90;;;;;;5116183;27;20538;-73
2021/11/09 02:51:45;;;;;;;24.60;11.65;;;5.50;99.90;;;;;;5115177;27;20319;-72
2021/11/09 02:54:20;;;;;;;24.50;11.30;;;5.50;99.90;;;;;;5116502;27;20059;-71
2021/11/09 02:56:50;;;;;;;26.15;11.93;;;5.50;99.90;;;;;;5115212;27;20457;-71
2021/11/09 02:59:37;;;;;;;23.55;11.38;;;5.60;99.90;;;;;;5115526;27;20051;-72
2021/11/09 03:02:11;;;;;;;23.33;11.52;;;5.60;99.90;;;;;;5112584;27;20095;-72
2021/11/09 03:04:51;;;;;;;23.63;11.25;;;5.60;99.90;;;;;;5114503;27;20051;-72
2021/11/09 03:07:27;;;;;;;30.63;12.35;;;5.60;99.90;;;;;;5114202;27;20462;-72
2021/11/09 03:09:59;;;;;;;23.83;10.25;;;5.60;99.90;;;;;;5113897;27;20061;-71
2021/11/09 03:12:31;;;;;;;23.00;11.77;;;5.60;99.90;;;;;;5113956;28;20073;-71
2021/11/09 03:14:58;;;;;;;24.08;11.52;;;5.60;99.90;;;;;;5115884;28;20375;-74
2021/11/09 03:17:32;;;;;;;26.17;11.20;;;5.60;99.90;;;;;;5113093;28;20139;-71
2021/11/09 03:20:02;;;;;;;26.85;10.88;;;5.60;99.90;;;;;;5113945;28;20055;-72
2021/11/09 03:44:39;;;;;;;28.07;10.83;;;5.70;99.90;;;;;;5109994;28;20074;-73
2021/11/09 03:47:09;;;;;;;27.90;12.27;;;5.70;99.90;;;;;;5110097;28;20062;-73
2021/11/09 03:49:36;;;;;;;30.67;11.25;;;5.70;99.90;;;;;;5110189;28;20128;-71
2021/11/09 03:52:10;;;;;;;31.33;11.43;;;5.70;99.90;;;;;;5110231;27;20396;-71
2021/11/09 03:54:38;;;;;;;24.48;12.57;;;5.70;99.90;;;;;;5111606;27;20051;-71
2021/11/09 03:57:11;;;;;;;26.30;11.40;;;5.60;99.90;;;;;;5110262;28;20054;-72
2021/11/09 03:59:48;;;;;;;25.40;11.77;;;5.60;99.90;;;;;;5111309;28;20074;-72
2021/11/09 04:02:22;;;;;;;28.30;11.23;;;5.60;99.90;;;;;;5109952;28;20048;-72
2021/11/09 04:04:51;;;;;;;27.83;12.05;;;5.60;99.90;;;;;;5111124;27;20431;-71
2021/11/09 04:07:21;;;;;;;29.48;11.88;;;5.60;99.90;;;;;;5110272;28;20055;-71
2021/11/09 04:10:00;;;;;;;31.83;14.45;;;5.70;99.90;;;;;;5111728;27;20058;-73
2021/11/09 04:12:38;;;;;;;29.15;13.23;;;5.70;99.90;;;;;;5111523;27;20396;-72
2021/11/09 04:15:21;;;;;;;31.77;13.50;;;5.60;99.90;;;;;;5113276;27;20468;-71
2021/11/09 04:18:06;;;;;;;30.45;14.10;;;5.60;99.90;;;;;;5114014;27;20071;-72
2021/11/09 04:20:41;;;;;;;30.02;13.02;;;5.60;99.90;;;;;;5113259;27;20055;-72
2021/11/09 04:28:59;;;;;;;33.13;12.45;;;5.60;99.90;;;;;;5044727;27;20045;-71
2021/11/09 04:53:47;;;;;;;31.23;11.90;;;5.20;99.90;;;;;;5095113;27;20055;-71
2021/11/09 05:02:16;;;;;;;30.30;11.50;;;5.00;99.90;;;;;;5104968;27;20057;-71
2021/11/09 05:10:14;;;;;;;29.67;12.88;;;4.80;99.90;;;;;;5113350;27;20130;-73
2021/11/09 05:12:44;;;;;;;26.50;12.02;;;4.80;99.90;;;;;;5113203;27;20051;-72
2021/11/09 05:15:11;;;;;;;23.92;12.65;;;4.80;99.90;;;;;;5112909;27;20065;-72
2021/11/09 05:17:39;;;;;;;27.17;12.23;;;4.70;99.90;;;;;;5112091;27;20503;-73
2021/11/09 05:20:07;;;;;;;24.88;11.77;;;4.60;99.90;;;;;;5112894;27;20051;-73
2021/11/09 05:22:34;;;;;;;27.67;12.55;;;4.60;99.90;;;;;;5111681;27;20090;-72
2021/11/09 05:25:01;;;;;;;25.80;12.55;;;4.60;99.90;;;;;;5111200;27;20492;-74
2021/11/09 05:27:28;;;;;;;27.10;12.95;;;4.60;99.90;;;;;;5112021;27;20082;-75
2021/11/09 05:29:57;;;;;;;29.35;12.80;;;4.70;99.90;;;;;;5113041;27;20051;-72
2021/11/09 05:32:24;;;;;;;31.48;13.80;;;4.70;99.90;;;;;;5112406;27;20055;-71
2021/11/09 05:34:53;;;;;;;30.88;13.70;;;4.60;99.90;;;;;;5113260;27;20054;-73
2021/11/09 05:37:23;;;;;;;24.75;12.70;;;4.50;99.90;;;;;;5111285;27;20096;-73
2021/11/09 05:39:52;;;;;;;26.17;12.93;;;4.50;99.90;;;;;;5113423;27;20345;-73
2021/11/09 05:42:19;;;;;;;27.05;13.05;;;4.40;99.90;;;;;;5115133;27;20046;-73
2021/11/09 05:44:46;;;;;;;26.85;13.38;;;4.30;99.90;;;;;;5114942;27;20458;-72
2021/11/09 05:47:13;;;;;;;26.85;13.15;;;4.30;99.90;;;;;;5114705;27;20083;-72
2021/11/09 05:49:41;;;;;;;34.45;14.40;;;4.20;99.90;;;;;;5114503;27;20046;-72
2021/11/09 05:52:10;;;;;;;28.65;14.48;;;4.20;99.90;;;;;;5115658;27;20051;-72
2021/11/09 05:54:37;;;;;;;29.58;13.20;;;4.10;99.90;;;;;;5115848;27;20419;-72
2021/11/09 05:57:05;;;;;;;30.30;12.98;;;4.00;99.90;;;;;;5112361;27;20055;-72
2021/11/09 05:59:32;;;;;;;29.48;13.52;;;4.10;99.90;;;;;;5112923;27;20051;-72
2021/11/09 06:01:59;;;;;;;28.70;13.77;;;4.00;99.90;;;;;;5112212;27;20262;-72
2021/11/09 06:04:26;;;;;;;29.17;13.50;;;4.00;99.90;;;;;;5112479;27;20071;-74
2021/11/09 06:06:54;;;;;;;32.63;14.13;;;4.00;99.90;;;;;;5111893;27;20061;-71
2021/11/09 06:09:23;;;;;;;35.97;13.70;;;3.90;99.90;;;;;;5113101;27;20130;-71
2021/11/09 06:11:50;;;;;;;28.70;14.23;;;3.80;99.90;;;;;;5112202;27;20055;-72
2021/11/09 06:14:17;;;;;;;34.33;13.63;;;3.90;99.90;;;;;;5112897;27;20533;-76
2021/11/09 06:16:44;;;;;;;33.83;14.90;;;3.90;99.90;;;;;;5111338;27;20051;-71
2021/11/09 06:19:11;;;;;;;34.33;16.13;;;3.90;99.90;;;;;;5111887;27;20062;-73
2021/11/09 06:21:38;;;;;;;32.37;15.37;;;4.00;99.90;;;;;;5112089;27;20047;-75
2021/11/09 06:24:05;;;;;;;67.83;18.17;;;4.10;99.90;;;;;;5111535;27;20073;-72
2021/11/09 06:26:34;;;;;;;102.18;21.92;;;4.20;99.90;;;;;;5111130;27;20043;-72
2021/11/09 06:29:01;;;;;;;87.95;21.80;;;4.30;99.90;;;;;;5112473;27;20475;-73
2021/11/09 06:31:30;;;;;;;120.50;24.80;;;4.30;99.90;;;;;;5112271;27;20131;-73
2021/11/09 06:33:58;;;;;;;161.83;27.27;;;4.40;99.90;;;;;;5111395;27;20070;-72
2021/11/09 06:36:25;;;;;;;122.07;23.10;;;4.40;99.90;;;;;;5112983;27;20055;-72
2021/11/09 06:38:52;;;;;;;108.03;21.80;;;4.50;99.90;;;;;;5112737;27;20151;-72
2021/11/09 06:41:19;;;;;;;256.83;30.65;;;4.50;99.90;;;;;;5111056;27;20051;-72
2021/11/09 06:43:47;;;;;;;157.95;24.33;;;4.50;99.90;;;;;;5111053;27;20107;-71
2021/11/09 06:46:15;;;;;;;60.03;20.05;;;4.60;99.90;;;;;;5109987;27;20051;-72
2021/11/09 06:48:44;;;;;;;61.85;19.73;;;4.60;99.90;;;;;;5111632;27;20050;-73
2021/11/09 06:51:11;;;;;;;76.45;20.75;;;4.70;99.90;;;;;;5111169;27;20050;-72
2021/11/09 06:53:38;;;;;;;129.07;21.92;;;4.70;99.90;;;;;;5110546;27;20130;-72
2021/11/09 06:56:05;;;;;;;137.88;21.88;;;4.60;99.90;;;;;;5110368;27;20105;-71
2021/11/09 06:58:34;;;;;;;116.22;20.38;;;4.60;99.90;;;;;;5111068;27;20162;-73
2021/11/09 07:01:04;;;;;;;75.85;18.08;;;4.60;99.90;;;;;;5110807;27;20062;-72
2021/11/09 07:03:33;;;;;;;100.13;20.95;;;4.60;99.90;;;;;;5113197;27;20120;-71
2021/11/09 07:06:00;;;;;;;91.10;19.05;;;4.60;99.90;;;;;;5112999;27;20047;-72
2021/11/09 07:08:27;;;;;;;153.65;21.15;;;4.70;99.90;;;;;;5112129;27;20529;-72
2021/11/09 07:10:54;;;;;;;65.25;15.02;;;4.50;99.90;;;;;;5110903;27;20087;-70
2021/11/09 07:13:21;;;;;;;75.10;16.30;;;4.60;99.90;;;;;;5109777;27;20156;-72
2021/11/09 07:15:48;;;;;;;114.35;21.83;;;4.70;99.90;;;;;;5109691;28;20047;-73
2021/11/09 07:18:17;;;;;;;169.73;22.73;;;4.70;99.90;;;;;;5111086;28;20059;-72
2021/11/09 07:20:44;;;;;;;89.85;19.23;;;4.60;99.90;;;;;;5111279;28;20074;-72
2021/11/09 07:23:11;;;;;;;108.55;19.17;;;4.70;99.90;;;;;;5110279;27;20051;-72
2021/11/09 07:25:39;;;;;;;123.85;19.35;;;4.80;99.90;;;;;;5109825;28;20558;-72
2021/11/09 07:28:06;;;;;;;148.68;16.33;;;4.80;99.90;;;;;;5111045;28;20051;-72
2021/11/09 07:30:41;;;;;;;56.47;13.30;;;4.90;99.90;;;;;;5112580;28;20059;-72
2021/11/09 07:33:09;;;;;;;86.47;15.85;;;4.80;99.90;;;;;;5112429;28;20059;-72
2021/11/09 07:35:37;;;;;;;99.60;15.05;;;4.80;99.90;;;;;;5112739;28;20097;-72
2021/11/09 07:38:04;;;;;;;100.50;16.08;;;4.60;99.90;;;;;;5114296;28;20112;-71
2021/11/09 07:40:33;;;;;;;78.18;15.20;;;4.80;99.90;;;;;;5114532;28;20469;-71
2021/11/09 07:43:00;;;;;;;122.15;16.25;;;4.70;99.90;;;;;;5113984;27;20621;-75
2021/11/09 07:45:27;;;;;;;50.70;11.55;;;4.70;99.90;;;;;;5114637;28;20457;-72
2021/11/09 07:47:56;;;;;;;87.13;15.40;;;4.80;99.90;;;;;;5115092;27;20073;-73
2021/11/09 07:50:24;;;;;;;65.40;11.10;;;4.70;99.90;;;;;;5114753;27;20050;-71
2021/11/09 07:52:57;;;;;;;55.65;11.93;;;4.60;99.90;;;;;;5115993;27;20043;-72
2021/11/09 07:55:25;;;;;;;87.28;11.85;;;4.60;99.90;;;;;;5113830;27;20583;-71
2021/11/09 07:57:54;;;;;;;42.60;12.05;;;4.50;99.90;;;;;;5117790;27;20062;-72
2021/11/09 08:00:25;;;;;;;34.83;10.45;;;4.60;99.90;;;;;;5119863;27;20126;-72
2021/11/09 08:03:10;;;;;;;63.65;11.15;;;4.70;99.90;;;;;;5119769;27;20107;-71
2021/11/09 08:05:44;;;;;;;88.95;14.35;;;4.70;99.90;;;;;;5115937;27;20062;-73
2021/11/09 08:08:14;;;;;;;80.57;11.45;;;4.70;99.90;;;;;;5114196;27;20103;-72
2021/11/09 08:10:42;;;;;;;56.65;10.57;;;4.60;99.90;;;;;;5115364;27;20353;-72
2021/11/09 08:13:09;;;;;;;74.78;11.98;;;4.70;99.90;;;;;;5116561;27;20055;-71
2021/11/09 08:15:37;;;;;;;49.20;11.30;;;4.70;99.90;;;;;;5115007;27;20503;-73
2021/11/09 08:18:04;;;;;;;89.03;12.88;;;4.80;99.90;;;;;;5115676;27;20087;-74
2021/11/09 08:20:31;;;;;;;88.82;14.80;;;4.70;99.90;;;;;;5118421;27;20674;-72
2021/11/09 08:22:59;;;;;;;33.42;11.60;;;4.80;99.90;;;;;;5119637;27;20051;-72
2021/11/09 08:25:27;;;;;;;51.88;13.63;;;4.80;99.90;;;;;;5119049;27;20056;-75
2021/11/09 08:27:54;;;;;;;84.65;13.27;;;4.90;99.90;;;;;;5119184;27;20507;-72
2021/11/09 08:30:21;;;;;;;38.53;11.43;;;4.80;99.90;;;;;;5119480;27;20609;-73
2021/11/09 08:32:49;;;;;;;85.72;11.98;;;5.00;99.90;;;;;;5121017;27;20122;-72
2021/11/09 08:35:21;;;;;;;40.38;11.18;;;5.10;99.90;;;;;;5122882;27;20083;-72
2021/11/09 08:37:50;;;;;;;25.95;10.13;;;5.10;99.90;;;;;;5112117;27;20491;-74
2021/11/09 08:40:20;;;;;;;46.47;10.98;;;5.20;99.90;;;;;;5110014;27;20058;-72
2021/11/09 08:42:49;;;;;;;74.35;12.63;;;5.20;99.90;;;;;;5116032;27;20051;-73
2021/11/09 08:45:25;;;;;;;30.33;9.52;;;5.30;99.90;;;;;;5114258;27;20457;-74
2021/11/09 08:47:55;;;;;;;27.55;9.70;;;5.40;99.90;;;;;;5116492;27;20503;-74
2021/11/09 08:50:26;;;;;;;28.83;9.48;;;5.30;99.90;;;;;;5115326;27;20507;-71
2021/11/09 08:52:55;;;;;;;22.67;8.90;;;5.60;99.90;;;;;;5116274;27;20062;-72
2021/11/09 08:55:30;;;;;;;27.08;9.10;;;5.40;99.90;;;;;;5117061;27;20051;-71
2021/11/09 08:58:19;;;;;;;19.15;8.30;;;5.50;99.90;;;;;;5117115;27;20046;-72
2021/11/09 09:06:29;;;;;;;17.08;8.55;;;5.60;99.90;;;;;;5114138;27;20088;-72
2021/11/09 09:08:56;;;;;;;26.00;9.27;;;6.00;99.90;;;;;;5117004;27;20430;-72
2021/11/09 09:11:23;;;;;;;25.60;9.05;;;6.10;99.90;;;;;;5117632;27;20047;-72
2021/11/09 09:13:52;;;;;;;23.50;9.27;;;6.10;99.90;;;;;;5116977;27;20062;-71
2021/11/09 09:16:19;;;;;;;19.55;8.88;;;6.10;99.90;;;;;;5116393;27;20051;-72
2021/11/09 09:18:47;;;;;;;19.75;9.52;;;6.00;99.90;;;;;;5116511;27;20423;-73
2021/11/09 09:21:18;;;;;;;30.23;10.20;;;6.00;99.90;;;;;;5117105;27;20100;-72
2021/11/09 09:23:49;;;;;;;17.70;8.43;;;6.10;99.90;;;;;;5117002;27;20061;-72
2021/11/09 09:26:26;;;;;;;20.80;9.23;;;6.20;99.90;;;;;;5117437;27;20150;-71
2021/11/09 09:29:29;;;;;;;18.90;8.95;;;6.30;99.90;;;;;;5117275;27;20047;-71
2021/11/09 09:54:19;;;;;;;18.77;8.60;;;6.60;99.90;;;;;;5119461;27;20093;-72
2021/11/09 09:56:52;;;;;;;21.23;9.48;;;6.80;99.90;;;;;;5118346;27;20055;-73
2021/11/09 09:59:20;;;;;;;22.90;8.80;;;6.80;99.90;;;;;;5118815;27;20047;-72
2021/11/09 10:02:04;;;;;;;18.58;9.65;;;6.80;99.90;;;;;;5118876;27;20047;-72
2021/11/09 10:04:33;;;;;;;16.02;8.65;;;6.90;99.90;;;;;;5118995;27;20051;-72
2021/11/09 10:07:01;;;;;;;15.40;8.65;;;7.40;99.90;;;;;;5117709;27;20062;-71
2021/11/09 10:09:33;;;;;;;18.80;8.70;;;8.00;99.90;;;;;;5117706;27;20073;-72
2021/11/09 10:12:19;;;;;;;16.75;8.48;;;8.30;99.90;;;;;;5117641;27;20074;-72
2021/11/09 10:14:48;;;;;;;16.50;7.68;;;8.40;99.90;;;;;;5116472;27;20070;-72
2021/11/09 10:17:18;;;;;;;17.17;8.13;;;8.60;99.90;;;;;;5116902;27;20045;-72
2021/11/09 10:19:46;;;;;;;14.82;8.60;;;8.40;99.90;;;;;;5117107;27;20043;-72
2021/11/09 10:22:22;;;;;;;14.18;7.03;;;8.80;99.90;;;;;;5115689;27;20499;-71
2021/11/09 10:24:54;;;;;;;21.27;7.55;;;8.90;99.90;;;;;;5114670;27;20467;-72
2021/11/09 10:27:22;;;;;;;14.00;7.43;;;8.80;99.90;;;;;;5113197;27;20051;-72
2021/11/09 10:29:52;;;;;;;19.02;7.05;;;8.90;99.90;;;;;;5116596;27;20495;-72
2021/11/09 10:32:25;;;;;;;11.13;6.43;;;9.10;99.90;;;;;;5116352;27;20058;-72
2021/11/09 10:34:53;;;;;;;17.60;7.30;;;10.10;99.90;;;;;;5116493;27;20086;-72
2021/11/09 10:37:23;;;;;;;18.10;6.93;;;14.40;99.90;;;;;;5114440;27;20051;-72
2021/11/09 10:39:51;;;;;;;16.75;6.85;;;14.40;99.90;;;;;;5115278;27;20756;-72
2021/11/09 10:42:20;;;;;;;18.95;7.53;;;12.70;99.90;;;;;;5115716;27;20154;-72
2021/11/09 10:44:53;;;;;;;19.30;7.47;;;13.20;99.90;;;;;;5114052;27;20151;-72
2021/11/09 10:47:24;;;;;;;16.42;6.45;;;13.30;99.90;;;;;;5114844;27;20050;-72
2021/11/09 10:49:54;;;;;;;11.75;6.32;;;15.80;99.90;;;;;;5114396;27;20051;-72
2021/11/09 10:52:27;;;;;;;13.70;6.35;;;18.80;99.90;;;;;;5114723;27;20502;-72
2021/11/09 10:55:00;;;;;;;15.40;6.10;;;19.50;99.90;;;;;;5116130;27;20388;-73
2021/11/09 10:57:39;;;;;;;15.57;6.45;;;20.00;99.90;;;;;;5115925;27;20529;-72
2021/11/09 11:00:20;;;;;;;20.33;6.22;;;21.50;99.90;;;;;;5114133;27;20201;-74
2021/11/09 11:05:33;;;;;;;14.40;6.97;;;21.40;99.90;;;;;;5113687;27;20057;-71
2021/11/09 11:08:01;;;;;;;14.25;6.70;;;20.10;99.50;;;;;;5113211;27;20895;-71
2021/11/09 11:10:32;;;;;;;14.63;6.20;;;20.90;99.80;;;;;;5115875;27;20391;-71
2021/11/09 11:13:22;;;;;;;11.07;6.57;;;22.80;99.10;;;;;;5113788;27;20142;-71
2021/11/09 11:16:02;;;;;;;21.20;8.23;;;23.10;99.00;;;;;;5112954;28;20384;-71
2021/11/09 11:18:32;;;;;;;14.88;9.50;;;23.20;98.10;;;;;;5112852;28;20485;-71
2021/11/09 11:20:59;;;;;;;13.35;8.18;;;24.00;97.20;;;;;;5114776;27;20047;-71
2021/11/09 11:23:28;;;;;;;10.85;7.47;;;23.90;97.80;;;;;;5117483;27;20101;-72
2021/11/09 11:25:56;;;;;;;15.30;6.88;;;22.40;97.10;;;;;;5116401;27;20081;-71
2021/11/09 11:28:23;;;;;;;12.65;7.07;;;24.20;98.20;;;;;;5117999;27;20435;-71
2021/11/09 11:30:52;;;;;;;12.25;7.13;;;23.40;96.70;;;;;;5117604;27;20055;-71
2021/11/09 11:33:19;;;;;;;12.43;6.55;;;23.00;97.50;;;;;;5116971;27;20099;-72
2021/11/09 11:35:48;;;;;;;10.27;7.00;;;23.60;98.30;;;;;;5118477;27;20040;-71
2021/11/09 11:38:18;;;;;;;11.05;6.72;;;21.40;98.50;;;;;;5117596;27;20047;-71
2021/11/09 11:40:46;;;;;;;10.98;6.40;;;21.10;99.30;;;;;;5117677;27;20096;-72
2021/11/09 11:43:13;;;;;;;11.38;6.43;;;20.90;98.60;;;;;;5116917;27;20043;-71
2021/11/09 11:45:50;;;;;;;10.63;6.35;;;21.90;99.70;;;;;;5116941;27;20043;-71
2021/11/09 11:48:17;;;;;;;11.55;6.55;;;22.80;98.50;;;;;;5117197;27;20430;-71
2021/11/09 11:50:45;;;;;;;10.35;6.78;;;23.20;98.20;;;;;;5117615;27;20069;-71
2021/11/09 11:53:13;;;;;;;15.80;6.80;;;22.80;97.70;;;;;;5117674;27;20141;-71
2021/11/09 11:55:41;;;;;;;10.63;7.10;;;22.40;98.40;;;;;;5116905;27;20054;-72
2021/11/09 11:58:10;;;;;;;10.93;7.03;;;22.40;99.20;;;;;;5117213;27;20059;-71
2021/11/09 12:00:59;;;;;;;10.48;5.95;;;21.70;99.20;;;;;;5117103;27;20135;-72
2021/11/09 12:03:41;;;;;;;13.00;7.28;;;21.40;99.20;;;;;;5117094;27;20055;-71
2021/11/09 12:06:28;;;;;;;11.45;6.78;;;21.80;99.80;;;;;;5116450;27;20090;-71
2021/11/09 12:08:58;;;;;;;16.25;6.13;;;21.20;99.80;;;;;;5117136;27;20047;-72
2021/11/09 12:11:42;;;;;;;9.25;5.72;;;21.10;99.90;;;;;;5117105;27;20146;-71
2021/11/09 12:14:12;;;;;;;12.98;5.43;;;21.20;99.90;;;;;;5117009;27;20118;-72
2021/11/09 12:16:52;;;;;;;11.75;5.57;;;20.60;99.20;;;;;;5115853;27;20047;-71
2021/11/09 12:19:58;;;;;;;11.98;5.80;;;20.20;99.90;;;;;;5115614;27;20055;-71
2021/11/09 12:22:44;;;;;;;11.57;5.68;;;20.50;99.90;;;;;;5116807;27;20063;-71
2021/11/09 12:25:15;;;;;;;15.27;6.30;;;20.70;99.90;;;;;;5116436;27;20070;-71
2021/11/09 12:28:03;;;;;;;12.98;5.75;;;20.50;99.90;;;;;;5117050;27;20477;-71
2021/11/09 12:30:57;;;;;;;9.13;5.13;;;20.10;99.90;;;;;;5116392;27;20096;-71
2021/11/09 12:33:25;;;;;;;15.80;5.78;;;19.40;99.90;;;;;;5067362;27;20135;-70
2021/11/09 12:36:20;;;;;;;13.88;6.03;;;19.00;99.60;;;;;;5116968;27;20058;-71
2021/11/09 12:38:50;;;;;;;12.23;4.97;;;19.70;99.90;;;;;;5116187;27;20074;-71
2021/11/09 12:41:20;;;;;;;9.35;4.80;;;20.10;99.90;;;;;;5117104;27;20054;-70
2021/11/09 12:43:49;;;;;;;8.90;5.00;;;20.50;99.90;;;;;;5116206;27;20051;-70
2021/11/09 12:46:23;;;;;;;10.77;5.03;;;20.40;98.80;;;;;;5118844;27;20529;-71
2021/11/09 12:48:56;;;;;;;10.18;5.00;;;20.60;99.40;;;;;;5117553;27;20420;-70
2021/11/09 12:51:26;;;;;;;11.50;5.93;;;20.40;99.90;;;;;;5117174;27;20051;-71
2021/11/09 12:53:54;;;;;;;9.48;5.32;;;20.80;99.90;;;;;;5115821;27;20051;-72
2021/11/09 12:56:30;;;;;;;10.40;5.43;;;20.80;98.50;;;;;;5115340;27;20044;-71
2021/11/09 12:59:02;;;;;;;15.32;5.03;;;20.90;99.60;;;;;;5115998;27;20166;-71
2021/11/09 13:01:39;;;;;;;10.75;5.43;;;21.20;98.20;;;;;;5116727;27;20063;-71
2021/11/09 13:06:59;;;;;;;9.85;5.93;;;21.80;98.40;;;;;;5113693;27;20086;-71
2021/11/09 13:09:30;;;;;;;10.18;5.53;;;21.60;98.00;;;;;;5117871;27;20073;-71
2021/11/09 13:12:00;;;;;;;9.27;5.45;;;21.80;98.70;;;;;;5117089;27;20051;-71
2021/11/09 13:14:34;;;;;;;11.32;5.47;;;21.20;98.70;;;;;;5115781;27;20497;-71
2021/11/09 13:17:09;;;;;;;10.77;5.47;;;20.60;98.60;;;;;;5116903;27;20578;-71
2021/11/09 13:19:41;;;;;;;10.98;4.95;;;20.60;99.40;;;;;;5117300;27;20086;-71
2021/11/09 13:22:12;;;;;;;10.73;5.32;;;20.40;98.40;;;;;;5116244;27;20419;-71
2021/11/09 13:24:43;;;;;;;11.48;5.38;;;20.20;99.90;;;;;;5118228;27;20070;-71
2021/11/09 13:27:13;;;;;;;11.00;5.68;;;18.90;99.90;;;;;;5118304;27;20151;-71
2021/11/09 13:29:46;;;;;;;10.77;5.28;;;17.50;99.90;;;;;;5118257;27;20096;-70
2021/11/09 13:32:15;;;;;;;10.93;5.10;;;16.40;99.90;;;;;;5118284;27;20055;-71
2021/11/09 13:34:43;;;;;;;8.18;4.88;;;15.80;99.90;;;;;;5116511;27;20039;-71
2021/11/09 13:37:12;;;;;;;12.02;5.47;;;15.30;99.90;;;;;;5116409;27;20560;-71
2021/11/09 13:39:39;;;;;;;12.63;5.03;;;15.20;99.90;;;;;;5115628;27;20062;-71
2021/11/09 13:42:08;;;;;;;10.60;4.75;;;15.50;99.90;;;;;;5115864;27;20500;-72
2021/11/09 13:44:36;;;;;;;11.13;4.45;;;15.60;99.90;;;;;;5113679;27;20488;-71
2021/11/09 13:47:04;;;;;;;11.07;4.80;;;15.60;99.90;;;;;;5114155;27;20131;-71
2021/11/09 13:49:31;;;;;;;9.48;4.80;;;14.90;99.90;;;;;;5115640;27;20047;-71
2021/11/09 13:51:59;;;;;;;9.00;4.63;;;14.80;99.90;;;;;;5115249;27;20055;-71
2021/11/09 13:54:31;;;;;;;9.98;4.65;;;14.70;99.90;;;;;;5115715;27;20079;-71
2021/11/09 13:56:59;;;;;;;10.02;4.53;;;14.80;99.90;;;;;;5115125;27;20055;-71
2021/11/09 13:59:28;;;;;;;11.30;4.68;;;14.60;99.90;;;;;;5113983;27;20293;-71
2021/11/09 14:02:01;;;;;;;3.97;1.80;;;14.70;99.90;;;;;;5115032;27;20094;-70
2021/11/09 14:04:56;;;;;;;6.15;1.50;;;14.10;99.70;;;;;;5115518;27;20137;-71
2021/11/09 14:10:46;;;;;;;;;;;13.90;99.20;;;;;;5115603;27;20051;-71
2021/11/09 14:18:34;;;;;;;4.20;1.40;;;13.00;99.70;;;;;;5098516;27;20647;-71
2021/11/09 14:21:02;;;;;;;2.53;1.20;;;13.00;99.90;;;;;;5114626;27;20563;-71
2021/11/09 14:23:32;;;;;;;6.75;2.08;;;13.10;99.90;;;;;;5114342;27;20043;-71
2021/11/09 14:26:00;;;;;;;4.07;1.23;;;13.10;99.90;;;;;;5114991;27;20047;-71
2021/11/09 14:28:35;;;;;;;3.75;1.38;;;13.20;99.90;;;;;;5113796;27;20108;-70
2021/11/09 14:31:16;;;;;;;2.17;1.33;;;13.00;99.70;;;;;;5113920;27;20520;-71
2021/11/09 14:33:46;;;;;;;4.40;1.40;;;13.10;99.90;;;;;;5114408;27;20051;-69
2021/11/09 14:36:29;;;;;;;3.70;1.60;;;13.20;99.90;;;;;;5113957;27;20059;-69
2021/11/09 14:39:15;;;;;;;5.82;1.95;;;13.00;99.90;;;;;;5113954;27;20170;-68